Weather at Port-de-Paix Airport

Public forecast

Using degrees Celsius for public forecast. Weather courtesy of forecast.io.

Closest aviation weather report (METAR) to Port-de-Paix Airport

Closest report is Cap Haitien International Airport, 38.8 nm (71.9 km) ESE. Retrieved 2020/10/31 15:51 UTC (22 minutes ago):

MTCH 311551Z 05006KT 9000 SCT032 31/22 Q1014

Closest aviation forecast (TAF) to Port-de-Paix Airport

Closest forecast is Cap Haitien International Airport, 38.8 nm (71.9 km) ESE. Retrieved 2020/10/31 12:06 UTC (4 hours ago):

TAF TAF MTCH 311200Z 3112/0112 12006KT 9000 FEW026 SCT200 PROB30 TEMPO 3120/0101 06016G28KT 4800 -SHRA SCT026CB FM010400 10014KT 7000 SCT022 BKN070